Time;durP1;ratioP1;P1;durP2;ratioP2;P2;SDS_P1;SDS_P2;PMS_P1;PMS_P2;Temp;Humidity;BMP_temperature;BMP_pressure;BME280_temperature;BME280_humidity;BME280_pressure;Samples;Min_cycle;Max_cycle;Signal;HPM_P1;HPM_P2
2024/03/01 00:01:55;;;;;;;30.10;18.30;;;4.30;99.90;;;-141.84;100.00;108568.56;5068017;28;20248;-59
2024/03/01 00:04:24;;;;;;;28.30;17.53;;;4.20;99.90;;;-141.84;100.00;110164.91;5068257;28;20349;-60
2024/03/01 00:06:52;;;;;;;31.63;18.93;;;4.20;99.90;;;-141.84;100.00;109100.59;5068229;28;20223;-58
2024/03/01 00:09:22;;;;;;;28.83;17.63;;;4.20;99.90;;;-141.84;100.00;108568.56;5067851;28;20240;-60
2024/03/01 00:11:50;;;;;;;25.47;17.07;;;4.20;99.90;;;-141.84;100.00;106972.81;5068668;28;20200;-60
2024/03/01 00:14:18;;;;;;;29.40;18.63;;;4.20;99.90;;;-141.84;100.00;106972.81;5069226;28;20254;-61
2024/03/01 00:16:46;;;;;;;30.57;18.53;;;4.20;99.90;;;-141.84;100.00;108036.56;5068347;28;20630;-59
2024/03/01 00:19:15;;;;;;;31.00;18.67;;;4.20;99.90;;;-141.84;100.00;108834.56;5062359;28;20231;-60
2024/03/01 00:21:43;;;;;;;30.73;18.03;;;4.20;99.90;;;-141.84;100.00;109366.66;5068600;28;20231;-60
2024/03/01 00:24:11;;;;;;;29.33;18.03;;;4.20;99.90;;;-141.84;100.00;108036.56;5069869;28;20280;-60
2024/03/01 00:26:46;;;;;;;32.57;18.60;;;4.20;99.90;;;-141.84;100.00;106706.94;5068507;28;20253;-61
2024/03/01 00:29:15;;;;;;;31.63;19.13;;;4.20;99.90;;;-141.84;100.00;105111.94;5069237;28;20212;-59
2024/03/01 00:31:43;;;;;;;28.83;18.00;;;4.20;99.90;;;-141.84;100.00;103517.56;5068207;28;20703;-59
2024/03/01 00:34:12;;;;;;;29.30;18.03;;;4.30;99.90;;;-141.84;100.00;103783.25;5069031;28;20314;-60
2024/03/01 00:36:40;;;;;;;27.83;17.87;;;4.20;99.90;;;-141.84;100.00;105111.94;5068562;28;20230;-59
2024/03/01 00:39:09;;;;;;;31.60;18.73;;;4.20;99.90;;;-141.84;100.00;104314.66;5068846;28;20306;-58
2024/03/01 00:41:37;;;;;;;31.63;19.50;;;4.30;99.90;;;-141.84;100.00;103783.25;5068683;28;20238;-61
2024/03/01 00:44:09;;;;;;;32.73;19.03;;;4.30;99.90;;;-141.84;100.00;103251.88;5068983;28;20299;-60
2024/03/01 00:46:37;;;;;;;30.70;18.97;;;4.30;99.90;;;-141.84;100.00;104580.41;5059464;28;20225;-60
2024/03/01 00:49:05;;;;;;;29.13;18.37;;;4.30;99.90;;;-141.84;100.00;104314.66;5068582;28;20220;-62
2024/03/01 00:51:34;;;;;;;29.27;18.67;;;4.30;99.90;;;-141.84;100.00;105909.34;5068362;28;20223;-60
2024/03/01 00:54:02;;;;;;;30.63;18.33;;;4.20;99.90;;;-141.84;100.00;107504.66;5068922;28;20307;-58
2024/03/01 00:56:30;;;;;;;31.30;18.40;;;4.20;99.90;;;-141.84;100.00;109632.72;5068967;28;20774;-60
2024/03/01 00:58:58;;;;;;;32.57;19.13;;;4.10;99.90;;;-141.84;100.00;110164.91;5067921;28;20712;-58
2024/03/01 01:01:29;;;;;;;31.90;19.33;;;4.20;99.90;;;-141.84;100.00;110431.03;5068592;28;20219;-59
2024/03/01 01:03:57;;;;;;;29.30;19.17;;;4.10;99.90;;;-141.84;100.00;110963.31;5067979;28;20243;-60
2024/03/01 01:06:25;;;;;;;32.37;18.90;;;4.10;99.90;;;-141.84;100.00;111495.69;5068301;28;20289;-60
2024/03/01 01:08:54;;;;;;;27.87;17.90;;;4.10;99.90;;;-141.84;100.00;109898.81;5068010;28;20243;-59
2024/03/01 01:11:22;;;;;;;32.43;18.87;;;4.10;99.90;;;-141.84;100.00;110164.91;5068760;28;20223;-59
2024/03/01 01:13:50;;;;;;;33.50;19.57;;;4.10;99.90;;;-141.84;100.00;110164.91;5068007;28;20231;-60
2024/03/01 01:16:19;;;;;;;30.87;18.97;;;4.10;99.90;;;-141.84;100.00;109632.72;5068401;28;20224;-59
2024/03/01 01:18:49;;;;;;;29.57;17.73;;;4.10;99.90;;;-141.84;100.00;107504.66;5067823;28;20733;-59
2024/03/01 01:21:17;;;;;;;33.17;18.80;;;4.10;99.90;;;-141.84;100.00;106441.06;5070365;28;20227;-60
2024/03/01 01:23:45;;;;;;;31.77;18.53;;;4.10;99.90;;;-141.84;100.00;106706.94;5071727;28;20287;-60
2024/03/01 01:26:14;;;;;;;31.60;19.10;;;4.10;99.90;;;-141.84;100.00;104846.16;5071964;28;20867;-59
2024/03/01 01:28:42;;;;;;;32.97;20.17;;;4.10;99.90;;;-141.84;100.00;105909.34;5071534;28;20301;-58
2024/03/01 01:31:10;;;;;;;32.47;19.57;;;4.10;99.90;;;-141.84;100.00;107238.72;5071569;28;20695;-62
2024/03/01 01:33:39;;;;;;;31.53;19.70;;;4.10;99.90;;;-141.84;100.00;107504.66;5070747;28;20228;-60
2024/03/01 01:36:09;;;;;;;32.90;18.77;;;4.10;99.90;;;-141.84;100.00;106706.94;5071889;28;20319;-60
2024/03/01 01:38:37;;;;;;;31.43;19.63;;;4.10;99.90;;;-141.84;100.00;108568.56;5071347;28;20222;-60
2024/03/01 01:41:06;;;;;;;30.30;18.13;;;4.10;99.90;;;-141.84;100.00;109632.72;5071875;28;20200;-59
2024/03/01 01:43:36;;;;;;;29.27;19.33;;;4.10;99.90;;;-141.84;100.00;109366.66;5071295;28;20294;-59
2024/03/01 01:46:05;;;;;;;31.67;19.77;;;4.10;99.90;;;-141.84;100.00;109366.66;5068321;28;20243;-59
2024/03/01 01:48:33;;;;;;;33.20;19.07;;;4.10;99.90;;;-141.84;100.00;109632.72;5070660;28;20285;-58
2024/03/01 01:51:03;;;;;;;31.90;19.17;;;4.10;99.90;;;-141.84;100.00;109632.72;5071414;28;20232;-59
2024/03/01 01:53:34;;;;;;;29.70;18.70;;;4.10;99.90;;;-141.84;100.00;109898.81;5071755;28;20227;-59
2024/03/01 01:56:04;;;;;;;32.20;19.57;;;4.10;99.90;;;-141.84;100.00;110963.31;5063626;28;20217;-58
2024/03/01 01:58:34;;;;;;;30.47;18.90;;;4.10;99.90;;;-141.84;100.00;110431.03;5071018;28;20223;-58
2024/03/01 02:01:07;;;;;;;32.23;18.53;;;4.40;99.90;;;-141.84;100.00;110431.03;5071536;28;20218;-59
2024/03/01 02:03:36;;;;;;;31.80;18.60;;;4.00;99.90;;;-141.84;100.00;111495.69;5070749;28;20215;-59
2024/03/01 02:06:06;;;;;;;30.53;18.03;;;4.00;99.90;;;-141.84;100.00;112028.13;5071054;28;20324;-60
2024/03/01 02:08:37;;;;;;;33.00;18.73;;;4.20;99.90;;;-141.84;100.00;111495.69;5071247;28;20730;-60
2024/03/01 02:11:07;;;;;;;32.33;20.13;;;4.10;99.90;;;-141.84;100.00;111229.50;5071166;28;20224;-59
2024/03/01 02:13:35;;;;;;;31.37;18.13;;;4.00;99.90;;;-141.84;100.00;110164.91;5070631;28;20491;-59
2024/03/01 02:16:05;;;;;;;29.23;18.90;;;3.80;99.90;;;-141.84;100.00;109100.59;5070530;28;20228;-59
2024/03/01 02:18:33;;;;;;;28.53;18.27;;;4.00;99.90;;;-141.84;100.00;108834.56;5070477;28;20231;-59
2024/03/01 02:21:10;;;;;;;32.97;19.80;;;4.00;99.90;;;-141.84;100.00;110164.91;5070379;28;20247;-59
2024/03/01 02:23:40;;;;;;;28.97;18.13;;;4.00;99.90;;;-141.84;100.00;111761.88;5070636;28;20246;-58
2024/03/01 02:26:08;;;;;;;30.07;18.83;;;4.00;99.90;;;-141.84;100.00;113093.19;5071173;28;20195;-60
2024/03/01 02:28:44;;;;;;;29.20;18.07;;;3.90;99.90;;;-141.84;100.00;114424.91;5062175;28;20244;-60
2024/03/01 02:31:13;;;;;;;31.70;18.83;;;3.90;99.90;;;-141.84;100.00;114691.31;5070535;28;20674;-60
2024/03/01 02:33:42;;;;;;;30.93;18.60;;;3.80;99.90;;;-141.84;100.00;114691.31;5070184;28;20280;-60
2024/03/01 02:36:10;;;;;;;30.40;19.40;;;3.80;99.90;;;-141.84;100.00;114957.72;5070727;28;20251;-60
2024/03/01 02:38:40;;;;;;;33.87;19.80;;;3.80;99.90;;;-141.84;100.00;115490.59;5070364;28;20196;-60
2024/03/01 02:41:09;;;;;;;30.33;18.87;;;3.80;99.90;;;-141.84;100.00;113892.16;5071072;28;20228;-60
2024/03/01 02:43:38;;;;;;;36.53;19.83;;;3.80;99.90;;;-141.84;100.00;111761.88;5069918;28;20246;-60
2024/03/01 02:46:06;;;;;;;29.70;18.57;;;3.80;99.90;;;-141.84;100.00;109632.72;5069989;28;20711;-59
2024/03/01 02:48:35;;;;;;;34.47;19.13;;;3.90;99.90;;;-141.84;100.00;109898.81;5011586;28;20730;-58
2024/03/01 02:51:03;;;;;;;32.03;19.90;;;3.90;99.90;;;-141.84;100.00;110697.16;5070139;28;20258;-59
2024/03/01 02:53:31;;;;;;;30.87;18.87;;;3.90;99.90;;;-141.84;100.00;111495.69;5070355;28;20250;-60
2024/03/01 02:56:01;;;;;;;29.23;18.17;;;3.80;99.90;;;-141.84;100.00;113359.50;5070231;28;20277;-59
2024/03/01 02:58:29;;;;;;;32.40;19.73;;;3.80;99.90;;;-141.84;100.00;114158.53;5069639;28;20309;-58
2024/03/01 03:00:58;;;;;;;32.77;19.33;;;3.80;99.90;;;-141.84;100.00;112560.63;5069865;28;20224;-58
2024/03/01 03:03:26;;;;;;;28.97;19.30;;;3.90;99.90;;;-141.84;100.00;111761.88;5069612;28;20224;-58
2024/03/01 03:05:54;;;;;;;28.10;18.57;;;3.80;99.90;;;-141.84;100.00;112826.88;5069686;28;20217;-59
2024/03/01 03:08:23;;;;;;;30.20;18.67;;;3.80;99.90;;;-141.84;100.00;112028.13;5069767;28;20258;-59
2024/03/01 03:10:51;;;;;;;31.90;18.70;;;3.80;99.90;;;-141.84;100.00;112294.34;5069651;28;20264;-58
2024/03/01 03:13:21;;;;;;;30.40;19.83;;;3.80;99.90;;;-141.84;100.00;112294.34;5069643;28;20246;-60
2024/03/01 03:15:50;;;;;;;33.03;19.80;;;3.80;99.90;;;-141.84;100.00;112294.34;5069418;28;20284;-59
2024/03/01 03:18:18;;;;;;;31.57;18.90;;;3.70;99.90;;;-141.84;100.00;112560.63;5069304;28;20222;-59
2024/03/01 03:20:46;;;;;;;34.73;19.23;;;3.70;99.90;;;-141.84;100.00;113892.16;5069937;28;20286;-60
2024/03/01 03:23:15;;;;;;;33.57;20.40;;;3.70;99.90;;;-141.84;100.00;113359.50;5069994;28;20203;-59
2024/03/01 03:25:43;;;;;;;30.07;18.97;;;3.70;99.90;;;-141.84;100.00;112826.88;5069683;28;20772;-59
2024/03/01 03:28:13;;;;;;;31.50;20.00;;;3.70;99.90;;;-141.84;100.00;112560.63;5069632;28;20226;-59
2024/03/01 03:30:44;;;;;;;31.27;19.30;;;3.70;99.90;;;-141.84;100.00;110431.03;5061724;28;20226;-59
2024/03/01 03:33:12;;;;;;;31.27;18.70;;;3.70;99.90;;;-141.84;100.00;109366.66;5069467;28;20319;-59
2024/03/01 03:35:40;;;;;;;30.47;17.63;;;3.70;99.90;;;-141.84;100.00;110697.16;5068900;28;20203;-60
2024/03/01 03:38:09;;;;;;;30.20;18.67;;;3.70;99.90;;;-141.84;100.00;113093.19;5070068;28;20281;-60
2024/03/01 03:40:37;;;;;;;33.97;19.50;;;3.50;99.90;;;-141.84;100.00;115224.16;5069287;28;20282;-60
2024/03/01 03:43:05;;;;;;;33.50;19.47;;;3.50;99.90;;;-141.84;100.00;116290.06;5068405;28;20216;-60
2024/03/01 03:45:34;;;;;;;32.70;18.57;;;3.50;99.90;;;-141.84;100.00;116556.59;5069114;28;20216;-60
2024/03/01 03:48:05;;;;;;;32.03;19.53;;;3.50;99.90;;;-141.84;100.00;116290.06;5068910;28;20251;-60
2024/03/01 03:50:33;;;;;;;32.90;20.60;;;3.50;99.90;;;-141.84;100.00;114957.72;5069169;28;20696;-58
2024/03/01 03:53:01;;;;;;;32.20;19.43;;;3.50;99.90;;;-141.84;100.00;115490.59;5069964;28;20363;-59
2024/03/01 03:55:29;;;;;;;31.77;19.03;;;3.40;99.90;;;-141.84;100.00;115224.16;5069249;28;20243;-60
2024/03/01 03:57:58;;;;;;;32.73;18.97;;;3.50;99.90;;;-141.84;100.00;111495.69;5061106;28;20238;-59
2024/03/01 04:00:26;;;;;;;31.20;18.90;;;3.60;99.90;;;-141.84;100.00;109898.81;5069708;28;20463;-59
2024/03/01 04:02:54;;;;;;;32.17;19.57;;;3.60;99.90;;;-141.84;100.00;109898.81;5069125;28;20207;-59
2024/03/01 04:05:24;;;;;;;31.93;19.37;;;3.60;99.90;;;-141.84;100.00;111495.69;5069546;28;20196;-59
2024/03/01 04:07:52;;;;;;;31.67;19.57;;;3.60;99.90;;;-141.84;100.00;110697.16;5069346;28;20224;-59
2024/03/01 04:10:20;;;;;;;32.53;19.40;;;3.60;99.90;;;-141.84;100.00;110963.31;5068795;28;20228;-58
2024/03/01 04:12:49;;;;;;;32.80;18.67;;;3.60;99.90;;;-141.84;100.00;110431.03;5068811;28;20222;-59
2024/03/01 04:15:18;;;;;;;32.23;19.33;;;3.60;99.90;;;-141.84;100.00;111229.50;5069095;28;20245;-59
2024/03/01 04:17:46;;;;;;;32.20;19.27;;;3.60;99.90;;;-141.84;100.00;109100.59;5067018;28;20213;-59
2024/03/01 04:20:16;;;;;;;30.70;19.47;;;3.60;99.90;;;-141.84;100.00;107770.63;5066092;28;20214;-60
2024/03/01 04:22:46;;;;;;;30.40;18.87;;;3.60;99.90;;;-141.84;100.00;108036.56;5068845;28;20598;-59
2024/03/01 04:25:14;;;;;;;28.93;18.13;;;3.60;99.90;;;-141.84;100.00;110431.03;5024115;28;20230;-60
2024/03/01 04:27:43;;;;;;;32.03;18.50;;;3.50;99.90;;;-141.84;100.00;112028.13;5068714;28;20223;-60
2024/03/01 04:30:12;;;;;;;30.43;18.93;;;3.50;99.90;;;-141.84;100.00;107238.72;5068499;28;20221;-60
2024/03/01 04:32:41;;;;;;;34.57;18.93;;;3.60;99.90;;;-141.84;100.00;106175.19;5060470;28;20227;-60
2024/03/01 04:35:09;;;;;;;33.00;20.17;;;3.60;99.90;;;-141.84;100.00;108302.56;5068792;28;20191;-60
2024/03/01 04:37:37;;;;;;;33.57;18.50;;;3.50;99.90;;;-141.84;100.00;111229.50;5068407;28;20597;-60
2024/03/01 04:40:11;;;;;;;31.13;18.60;;;3.50;99.90;;;-141.84;100.00;113359.50;5068503;28;20221;-60
2024/03/01 04:42:41;;;;;;;32.23;18.77;;;3.40;99.90;;;-141.84;100.00;115224.16;5033915;28;20230;-60
2024/03/01 04:45:10;;;;;;;30.17;17.70;;;3.40;99.90;;;-141.84;100.00;114691.31;5068398;28;20230;-58
2024/03/01 04:47:38;;;;;;;34.53;19.13;;;3.30;99.90;;;-141.84;100.00;111229.50;5068905;28;20277;-60
2024/03/01 04:50:09;;;;;;;30.83;19.80;;;3.40;99.90;;;-141.84;100.00;106972.81;5069390;28;20284;-62
2024/03/01 04:52:37;;;;;;;36.07;20.73;;;3.40;99.90;;;-141.84;100.00;105909.34;5068369;28;20258;-61
2024/03/01 04:55:09;;;;;;;31.77;20.80;;;3.40;99.90;;;-141.84;100.00;106175.19;5068669;28;20227;-60
2024/03/01 04:57:41;;;;;;;29.53;19.10;;;3.30;99.90;;;-141.84;100.00;107238.72;5071872;28;20232;-60
2024/03/01 05:00:12;;;;;;;33.73;19.83;;;3.30;99.90;;;-141.84;100.00;109100.59;5072103;28;20551;-59
2024/03/01 05:02:41;;;;;;;32.20;19.13;;;3.30;99.90;;;-141.84;100.00;109366.66;5072117;28;20204;-60
2024/03/01 05:05:11;;;;;;;34.10;20.87;;;3.30;99.90;;;-141.84;100.00;106441.06;5072669;28;20227;-60
2024/03/01 05:07:39;;;;;;;32.40;21.40;;;3.30;99.90;;;-141.84;100.00;106441.06;5070004;28;20222;-61
2024/03/01 05:10:10;;;;;;;31.37;21.57;;;3.30;99.90;;;-141.84;100.00;106706.94;5068622;28;20298;-60
2024/03/01 05:12:40;;;;;;;33.17;21.07;;;3.30;99.90;;;-141.84;100.00;108302.56;5064282;28;20239;-60
2024/03/01 05:15:12;;;;;;;33.73;21.30;;;3.20;99.90;;;-141.84;100.00;109898.81;5071829;28;20261;-60
2024/03/01 05:17:43;;;;;;;35.80;21.03;;;3.20;99.90;;;-141.84;100.00;112560.63;5071887;28;20199;-59
2024/03/01 05:20:12;;;;;;;30.67;18.80;;;3.10;99.90;;;-141.84;100.00;114691.31;5072274;28;20287;-60
2024/03/01 05:22:42;;;;;;;32.27;19.27;;;3.10;99.90;;;-141.84;100.00;116023.56;5071695;28;20297;-59
2024/03/01 05:25:15;;;;;;;31.80;19.50;;;3.10;99.90;;;-141.84;100.00;116290.06;5071740;28;20270;-59
2024/03/01 05:27:46;;;;;;;31.17;18.50;;;3.10;99.90;;;-141.84;100.00;116823.13;5071579;28;20234;-61
2024/03/01 05:30:19;;;;;;;31.73;19.57;;;3.10;99.90;;;-141.84;100.00;116556.59;5071025;28;20225;-60
2024/03/01 05:33:08;;;;;;;30.47;19.13;;;3.10;99.90;;;-141.84;100.00;117089.69;5071322;28;20672;-59
2024/03/01 05:35:37;;;;;;;28.10;17.57;;;3.10;99.90;;;-141.84;100.00;117089.69;5071496;28;20207;-60
2024/03/01 05:38:06;;;;;;;30.63;18.67;;;3.10;99.90;;;-141.84;100.00;117356.25;5072136;28;20252;-60
2024/03/01 05:40:37;;;;;;;35.43;20.17;;;3.00;99.90;;;-141.84;100.00;117889.44;5070944;28;20224;-59
2024/03/01 05:43:18;;;;;;;30.77;19.07;;;3.00;99.90;;;-141.84;100.00;117089.69;5064724;28;20210;-59
2024/03/01 05:45:46;;;;;;;30.17;18.83;;;3.10;99.90;;;-141.84;100.00;116290.06;5071261;28;20234;-60
2024/03/01 05:48:16;;;;;;;31.40;19.03;;;3.10;99.90;;;-141.84;100.00;116556.59;5071353;28;20218;-59
2024/03/01 05:50:45;;;;;;;31.63;18.10;;;3.00;99.90;;;-141.84;100.00;117889.44;5071334;28;20280;-60
2024/03/01 05:53:15;;;;;;;28.33;18.40;;;3.00;99.90;;;-141.84;100.00;118689.38;5071680;28;20220;-60
2024/03/01 05:55:46;;;;;;;33.10;18.70;;;2.90;99.90;;;-141.84;100.00;118956.03;5071045;28;20281;-60
2024/03/01 05:58:15;;;;;;;33.80;20.30;;;3.00;99.90;;;-141.84;100.00;118956.03;5071884;28;20223;-61
2024/03/01 06:00:45;;;;;;;32.93;19.73;;;2.90;99.90;;;-141.84;100.00;119222.75;5071178;28;20716;-59
2024/03/01 06:03:13;;;;;;;29.97;18.13;;;3.00;99.90;;;-141.84;100.00;118422.72;5071211;28;20222;-60
2024/03/01 06:05:42;;;;;;;29.60;18.93;;;3.00;99.90;;;-141.84;100.00;116823.13;5071256;28;20250;-60
2024/03/01 06:08:14;;;;;;;31.63;18.80;;;3.10;99.90;;;-141.84;100.00;116556.59;5071038;28;20231;-59
2024/03/01 06:10:42;;;;;;;29.67;18.50;;;3.10;99.90;;;-141.84;100.00;115757.06;5071477;28;20217;-60
2024/03/01 06:13:12;;;;;;;29.67;18.57;;;3.20;99.90;;;-141.84;100.00;114957.72;5071418;28;20239;-60
2024/03/01 06:15:40;;;;;;;35.60;20.40;;;3.20;99.90;;;-141.84;100.00;114957.72;5070842;28;20449;-58
2024/03/01 06:18:09;;;;;;;32.70;20.90;;;3.30;99.90;;;-141.84;100.00;112560.63;5070881;28;20294;-60
2024/03/01 06:20:38;;;;;;;32.10;20.03;;;3.30;99.90;;;-141.84;100.00;111229.50;5070627;28;20694;-59
2024/03/01 06:23:06;;;;;;;33.60;19.80;;;3.30;99.90;;;-141.84;100.00;108302.56;5062983;28;20230;-60
2024/03/01 06:25:34;;;;;;;32.23;19.40;;;3.40;99.90;;;-141.84;100.00;110431.03;5070456;28;20250;-59
2024/03/01 06:28:03;;;;;;;31.03;17.80;;;3.40;99.90;;;-141.84;100.00;101658.25;5071404;28;20672;-61
2024/03/01 06:30:34;;;;;;;27.90;17.83;;;3.40;99.90;;;-141.84;100.00;95289.94;5072542;28;20245;-60
2024/03/01 06:33:06;;;;;;;32.37;19.73;;;3.50;99.90;;;-141.84;100.00;100065.22;5073257;28;20224;-60
2024/03/01 06:35:34;;;;;;;24.60;16.97;;;3.50;99.90;;;-141.84;100.00;97146.31;5072074;28;20217;-60
2024/03/01 06:38:03;;;;;;;28.07;16.70;;;3.50;99.90;;;-141.84;100.00;99003.56;5072246;28;20224;-60
2024/03/01 06:40:33;;;;;;;29.20;17.90;;;3.60;99.90;;;-141.84;100.00;101658.25;5071893;28;20227;-60
2024/03/01 06:43:01;;;;;;;27.23;17.67;;;3.50;99.90;;;-141.84;100.00;106706.94;5070533;28;20637;-59
2024/03/01 06:45:31;;;;;;;30.37;17.93;;;3.60;99.90;;;-141.84;100.00;104048.94;5072005;28;20225;-59
2024/03/01 06:48:01;;;;;;;28.50;16.43;;;3.70;99.90;;;-141.84;100.00;106441.06;5072049;28;20221;-59
2024/03/01 06:50:31;;;;;;;27.70;17.07;;;3.70;99.90;;;-141.84;100.00;108834.56;5063842;28;20197;-59
2024/03/01 06:52:59;;;;;;;29.60;17.73;;;3.80;99.90;;;-141.84;100.00;106706.94;5071778;28;20219;-59
2024/03/01 06:55:27;;;;;;;28.70;18.77;;;3.90;99.90;;;-141.84;100.00;107504.66;5070441;28;20778;-58
2024/03/01 06:57:57;;;;;;;26.60;16.83;;;3.90;99.90;;;-141.84;100.00;99534.38;5068947;28;20273;-60
2024/03/01 07:00:26;;;;;;;23.63;16.23;;;4.10;99.90;;;-141.84;96.12;84698.34;5071215;28;20314;-59
2024/03/01 07:02:54;;;;;;;29.43;17.57;;;4.20;99.90;;;-141.84;92.99;74662.09;5071075;28;20287;-60
2024/03/01 07:05:23;;;;;;;25.73;17.23;;;4.30;99.90;;;-141.84;91.37;65966.75;5071052;28;20227;-60
2024/03/01 07:07:52;;;;;;;25.07;16.30;;;4.40;99.90;;;-141.84;93.09;72288.75;5069367;28;20655;-59
2024/03/01 07:10:20;;;;;;;26.23;16.27;;;4.50;99.90;;;-141.84;95.81;82054.78;5069164;28;20228;-59
2024/03/01 07:12:50;;;;;;;24.17;15.90;;;4.50;99.90;;;-141.84;93.70;77564.72;5068895;28;20223;-60
2024/03/01 07:15:20;;;;;;;24.37;16.00;;;4.70;99.90;;;-141.84;93.73;75717.34;5070947;28;20314;-58
2024/03/01 07:17:49;;;;;;;24.83;16.83;;;4.80;99.90;;;-141.84;92.56;73607.09;5061158;28;20257;-61
2024/03/01 07:20:17;;;;;;;27.43;17.07;;;4.90;99.90;;;-141.84;91.56;68336.31;5071563;28;20539;-58
2024/03/01 07:22:48;;;;;;;28.53;16.80;;;5.00;99.90;;;-141.84;91.53;69126.50;5069480;28;20225;-59
2024/03/01 07:25:17;;;;;;;26.63;17.13;;;5.10;99.90;;;-141.84;90.80;65703.56;5070000;28;20269;-59
2024/03/01 07:27:45;;;;;;;25.97;17.03;;;5.30;99.90;;;-141.84;90.40;64387.81;5070992;28;20701;-59
2024/03/01 07:30:15;;;;;;;25.40;16.27;;;5.30;99.90;;;-141.84;90.44;64387.81;5070340;28;20216;-59
2024/03/01 07:32:43;;;;;;;27.57;17.70;;;5.40;99.90;;;-141.84;87.56;50467.75;5069647;28;20282;-60
2024/03/01 07:35:11;;;;;;;27.47;18.07;;;5.50;99.90;;;-141.84;87.65;50205.56;5070118;28;20212;-58
2024/03/01 07:37:40;;;;;;;25.33;16.77;;;5.60;99.90;;;-141.84;86.19;44180.38;5068660;28;20316;-59
2024/03/01 07:40:12;;;;;;;31.10;18.17;;;5.70;99.90;;;-141.84;85.17;33552.34;5068855;28;20230;-59
2024/03/01 07:42:41;;;;;;;26.10;16.87;;;5.90;99.90;;;-141.84;84.53;31439.97;5069056;28;20255;-59
2024/03/01 07:45:11;;;;;;;31.23;18.53;;;6.00;99.90;;;-141.84;83.43;25199.25;5068808;28;20652;-60
2024/03/01 07:47:43;;;;;;;26.47;17.30;;;6.00;99.90;;;-141.84;82.52;23583.66;5070175;28;20587;-59
2024/03/01 07:50:11;;;;;;;29.77;18.33;;;6.10;99.90;;;-141.84;83.44;25016.09;5070341;28;20189;-61
2024/03/01 07:52:40;;;;;;;31.30;17.70;;;6.10;99.90;;;-141.84;84.97;31747.78;5069390;28;20220;-59
2024/03/01 07:55:11;;;;;;;30.67;18.07;;;6.20;99.90;;;-141.84;84.18;29799.41;5069928;28;20227;-61
2024/03/01 07:57:39;;;;;;;28.80;17.53;;;6.20;99.90;;;-141.84;82.71;24106.50;5069039;28;20622;-59
2024/03/01 08:00:14;;;;;;;31.30;18.37;;;6.40;99.90;;;-141.84;81.08;20683.78;5071733;28;20708;-60
2024/03/01 08:02:43;;;;;;;29.17;18.10;;;6.50;99.90;;;-141.84;79.73;19502.91;5073313;28;20565;-59
2024/03/01 08:05:14;;;;;;;29.13;17.70;;;6.70;99.90;;;-141.84;77.75;18606.81;5073871;28;20860;-60
2024/03/01 08:07:42;;;;;;;28.13;18.63;;;6.60;99.90;;;-141.84;77.51;18604.78;5037981;28;20344;-59
2024/03/01 08:10:17;;;;;;;26.53;17.73;;;6.80;99.90;;;-141.84;76.54;18513.34;5073381;28;20246;-60
2024/03/01 08:12:46;;;;;;;31.63;18.67;;;6.90;99.90;;;-141.84;75.77;18415.81;5073290;28;20608;-60
2024/03/01 08:15:28;;;;;;;31.87;18.60;;;7.10;99.90;;;-141.84;76.51;18468.66;5072593;28;20709;-60
2024/03/01 08:18:00;;;;;;;30.80;18.57;;;7.10;99.90;;;-141.84;76.19;18456.47;5066844;28;20592;-60
2024/03/01 08:20:57;;;;;;;25.97;17.33;;;7.10;99.90;;;-141.84;77.13;18566.16;5073911;28;20189;-60
2024/03/01 08:23:32;;;;;;;27.90;17.67;;;7.10;99.90;;;-141.84;77.87;18744.97;5068813;28;20228;-60
2024/03/01 08:26:02;;;;;;;26.10;17.00;;;7.10;99.90;;;-141.84;77.24;18590.56;5028633;28;20307;-61
2024/03/01 08:28:34;;;;;;;28.07;17.97;;;7.10;99.90;;;-141.84;76.78;18572.25;5072876;28;20228;-60
2024/03/01 08:31:04;;;;;;;30.00;17.63;;;7.20;99.90;;;-141.84;77.07;18639.31;5076335;28;20259;-60
2024/03/01 08:33:41;;;;;;;29.17;18.00;;;7.20;99.90;;;-141.84;78.29;18885.16;5069586;28;20219;-60
2024/03/01 08:36:14;;;;;;;29.50;18.30;;;7.10;99.90;;;-141.84;78.98;19224.50;5077050;28;20783;-60
2024/03/01 08:39:10;;;;;;;33.43;18.90;;;7.20;99.90;;;-141.84;78.64;19013.16;5058051;28;20193;-59
2024/03/01 08:41:44;;;;;;;28.97;18.27;;;7.30;99.90;;;-141.84;76.70;18686.03;5076974;28;20326;-59
2024/03/01 08:44:55;;;;;;;29.03;18.27;;;7.50;99.90;;;-141.84;74.57;18391.44;5078059;28;20193;-59
2024/03/01 08:47:34;;;;;;;28.50;17.87;;;7.60;99.90;;;-141.84;74.65;18442.25;5063341;28;20688;-59
2024/03/01 08:50:44;;;;;;;27.37;17.73;;;7.70;99.90;;;-141.84;73.79;18373.16;5076869;28;20213;-59
2024/03/01 08:54:01;;;;;;;30.97;18.30;;;7.80;99.90;;;-141.84;74.06;18432.09;5074443;28;20704;-60
2024/03/01 08:56:35;;;;;;;28.97;17.90;;;7.90;99.90;;;-141.84;73.10;18371.13;5072036;28;20224;-59
2024/03/01 08:59:44;;;;;;;29.03;17.93;;;7.90;99.90;;;-141.84;73.20;18373.16;5072452;28;20219;-58
2024/03/01 09:02:46;;;;;;;29.83;19.43;;;8.00;99.90;;;-141.84;74.52;18470.69;5068688;28;20219;-60
2024/03/01 09:05:16;;;;;;;28.37;17.67;;;8.20;99.90;;;-141.84;74.45;18458.50;5065667;28;20215;-60
2024/03/01 09:07:45;;;;;;;28.70;18.20;;;8.10;99.90;;;-141.84;73.27;18421.91;5072155;28;20263;-61
2024/03/01 09:10:22;;;;;;;29.37;18.83;;;8.20;99.90;;;-141.84;73.60;18425.97;5067351;28;20253;-59
2024/03/01 09:12:50;;;;;;;26.70;18.57;;;8.20;99.90;;;-141.84;72.13;18391.44;5071357;28;20738;-59
2024/03/01 09:15:23;;;;;;;28.37;17.93;;;8.30;99.90;;;-141.84;71.61;18391.44;5070753;28;20232;-56
2024/03/01 09:17:53;;;;;;;29.70;18.03;;;8.40;99.90;;;-141.84;70.65;18397.53;5071889;28;20196;-58
2024/03/01 09:20:33;;;;;;;31.97;18.10;;;8.50;99.90;;;-141.84;71.20;18379.25;5071487;28;20258;-56
2024/03/01 09:23:04;;;;;;;27.90;17.73;;;8.50;99.90;;;-141.84;71.71;18411.75;5070451;28;20208;-58
2024/03/01 09:26:02;;;;;;;27.60;17.97;;;8.60;99.90;;;-141.84;70.03;18379.25;5071401;28;20220;-57
2024/03/01 09:28:30;;;;;;;25.47;17.47;;;8.60;99.90;;;-141.84;70.31;18399.56;5067750;28;20270;-59
2024/03/01 09:31:00;;;;;;;27.13;17.93;;;8.70;99.90;;;-141.84;69.59;18387.38;5071250;28;20240;-61
2024/03/01 09:33:30;;;;;;;29.70;18.60;;;8.90;99.90;;;-141.84;69.20;18369.09;5066077;28;20213;-60
2024/03/01 09:35:58;;;;;;;27.53;17.90;;;8.90;99.90;;;-141.84;66.78;18401.59;5071621;28;20224;-59
2024/03/01 09:38:26;;;;;;;27.97;18.63;;;9.20;99.90;;;-141.84;67.10;18419.88;5066555;28;20224;-60
2024/03/01 09:41:50;;;;;;;27.77;18.13;;;9.20;99.90;;;-141.84;66.74;18407.69;5070284;28;20229;-61
2024/03/01 09:44:46;;;;;;;26.10;16.90;;;9.20;99.90;;;-141.84;66.31;18385.34;5068680;28;20268;-62
2024/03/01 09:47:37;;;;;;;26.50;17.90;;;9.30;99.90;;;-141.84;66.25;18423.94;5069310;28;20217;-62
2024/03/01 09:50:26;;;;;;;25.90;17.93;;;9.40;99.90;;;-141.84;65.86;18425.97;5070267;28;20451;-59
2024/03/01 09:53:12;;;;;;;28.47;17.97;;;9.40;99.90;;;-141.84;65.11;18430.06;5068260;28;20286;-60
2024/03/01 09:55:55;;;;;;;27.43;18.67;;;9.60;99.90;;;-141.84;64.85;18430.06;5070539;28;20536;-62
2024/03/01 09:58:38;;;;;;;28.03;19.40;;;9.70;99.90;;;-141.84;64.44;18452.41;5066715;28;20224;-63
2024/03/01 10:01:17;;;;;;;29.23;17.67;;;9.70;99.90;;;-141.84;64.21;18478.81;5071111;28;20242;-64
2024/03/01 10:04:09;;;;;;;28.30;18.63;;;9.70;99.90;;;-141.84;63.96;18458.50;5070519;28;20216;-64
2024/03/01 10:07:17;;;;;;;27.60;18.40;;;9.70;99.90;;;-141.84;64.48;18456.47;5064455;28;20229;-64
2024/03/01 10:10:28;;;;;;;26.00;18.03;;;9.80;99.90;;;-141.84;63.13;18430.06;5065786;28;20243;-64